sensor_id;sensor_type;location;lat;lon;timestamp;pressure;altitude;pressure_sealevel;temperature;humidity
55149;BME280;49539;48.160;11.530;2022-10-31T00:01:36;96304.25;;;11.04;100.00
55149;BME280;49539;48.160;11.530;2022-10-31T00:04:04;96307.69;;;11.08;100.00
55149;BME280;49539;48.160;11.530;2022-10-31T00:06:29;96300.44;;;10.98;100.00
55149;BME280;49539;48.160;11.530;2022-10-31T00:08:56;96304.66;;;11.02;100.00
55149;BME280;49539;48.160;11.530;2022-10-31T00:11:22;96300.38;;;11.01;100.00
55149;BME280;49539;48.160;11.530;2022-10-31T00:13:48;96308.56;;;11.01;100.00
55149;BME280;49539;48.160;11.530;2022-10-31T00:16:15;96303.06;;;11.05;100.00
55149;BME280;49539;48.160;11.530;2022-10-31T00:18:40;96297.38;;;10.96;100.00
55149;BME280;49539;48.160;11.530;2022-10-31T00:21:06;96301.38;;;10.87;100.00
55149;BME280;49539;48.160;11.530;2022-10-31T00:23:31;96300.63;;;10.87;100.00
55149;BME280;49539;48.160;11.530;2022-10-31T00:26:00;96294.44;;;10.83;100.00
55149;BME280;49539;48.160;11.530;2022-10-31T00:28:26;96300.63;;;10.87;100.00
55149;BME280;49539;48.160;11.530;2022-10-31T00:30:51;96302.97;;;10.85;100.00
55149;BME280;49539;48.160;11.530;2022-10-31T00:33:20;96298.75;;;10.80;100.00
55149;BME280;49539;48.160;11.530;2022-10-31T00:35:49;96300.34;;;10.78;100.00
55149;BME280;49539;48.160;11.530;2022-10-31T00:38:15;96296.13;;;10.73;100.00
55149;BME280;49539;48.160;11.530;2022-10-31T00:40:40;96302.44;;;10.70;100.00
55149;BME280;49539;48.160;11.530;2022-10-31T00:43:05;96300.84;;;10.69;100.00
55149;BME280;49539;48.160;11.530;2022-10-31T00:45:31;96303.19;;;10.71;100.00
55149;BME280;49539;48.160;11.530;2022-10-31T00:47:56;96296.19;;;10.69;100.00
55149;BME280;49539;48.160;11.530;2022-10-31T00:50:21;96302.81;;;10.68;100.00
55149;BME280;49539;48.160;11.530;2022-10-31T00:52:46;96300.50;;;10.67;100.00
55149;BME280;49539;48.160;11.530;2022-10-31T00:55:12;96294.69;;;10.65;100.00
55149;BME280;49539;48.160;11.530;2022-10-31T00:57:37;96302.81;;;10.68;100.00
55149;BME280;49539;48.160;11.530;2022-10-31T01:00:02;96296.75;;;10.57;100.00
55149;BME280;49539;48.160;11.530;2022-10-31T01:02:28;96298.69;;;10.57;100.00
55149;BME280;49539;48.160;11.530;2022-10-31T01:04:53;96293.00;;;10.48;100.00
55149;BME280;49539;48.160;11.530;2022-10-31T01:07:18;96293.66;;;10.55;100.00
55149;BME280;49539;48.160;11.530;2022-10-31T01:09:43;96288.19;;;10.59;100.00
55149;BME280;49539;48.160;11.530;2022-10-31T01:12:09;96288.94;;;10.59;100.00
55149;BME280;49539;48.160;11.530;2022-10-31T01:14:34;96288.66;;;10.54;100.00
55149;BME280;49539;48.160;11.530;2022-10-31T01:16:59;96285.53;;;10.52;100.00
55149;BME280;49539;48.160;11.530;2022-10-31T01:19:25;96290.53;;;10.57;100.00
55149;BME280;49539;48.160;11.530;2022-10-31T01:21:50;96297.22;;;10.52;100.00
55149;BME280;49539;48.160;11.530;2022-10-31T01:24:18;96289.50;;;10.47;100.00
55149;BME280;49539;48.160;11.530;2022-10-31T01:26:43;96296.13;;;10.46;100.00
55149;BME280;49539;48.160;11.530;2022-10-31T01:29:09;96294.22;;;10.43;100.00
55149;BME280;49539;48.160;11.530;2022-10-31T01:31:35;96295.66;;;10.51;100.00
55149;BME280;49539;48.160;11.530;2022-10-31T01:34:02;96296.34;;;10.59;100.00
55149;BME280;49539;48.160;11.530;2022-10-31T01:36:31;96297.94;;;10.56;100.00
55149;BME280;49539;48.160;11.530;2022-10-31T01:38:58;96299.06;;;10.59;100.00
55149;BME280;49539;48.160;11.530;2022-10-31T01:41:26;96298.69;;;10.57;100.00
55149;BME280;49539;48.160;11.530;2022-10-31T01:46:18;96300.75;;;10.49;100.00
55149;BME280;49539;48.160;11.530;2022-10-31T01:48:45;96297.41;;;10.38;100.00
55149;BME280;49539;48.160;11.530;2022-10-31T01:51:11;96293.09;;;10.40;100.00
55149;BME280;49539;48.160;11.530;2022-10-31T01:53:39;96292.31;;;10.40;100.00
55149;BME280;49539;48.160;11.530;2022-10-31T01:56:05;96291.97;;;10.38;100.00
55149;BME280;49539;48.160;11.530;2022-10-31T01:58:30;96290.06;;;10.35;100.00
55149;BME280;49539;48.160;11.530;2022-10-31T02:00:59;96288.19;;;10.28;100.00
55149;BME280;49539;48.160;11.530;2022-10-31T02:03:25;96292.09;;;10.27;100.00
55149;BME280;49539;48.160;11.530;2022-10-31T02:05:53;96286.66;;;10.24;100.00
55149;BME280;49539;48.160;11.530;2022-10-31T02:10:50;96285.47;;;10.28;100.00
55149;BME280;49539;48.160;11.530;2022-10-31T02:13:16;96284.66;;;10.31;100.00
55149;BME280;49539;48.160;11.530;2022-10-31T02:15:42;96288.91;;;10.32;100.00
55149;BME280;49539;48.160;11.530;2022-10-31T02:18:09;96286.31;;;10.25;100.00
55149;BME280;49539;48.160;11.530;2022-10-31T02:20:55;96291.31;;;10.27;100.00
55149;BME280;49539;48.160;11.530;2022-10-31T02:23:31;96292.09;;;10.27;100.00
55149;BME280;49539;48.160;11.530;2022-10-31T02:34:17;96288.69;;;10.16;100.00
55149;BME280;49539;48.160;11.530;2022-10-31T02:39:13;96289.69;;;9.99;100.00
55149;BME280;49539;48.160;11.530;2022-10-31T02:41:56;96295.41;;;10.08;100.00
55149;BME280;49539;48.160;11.530;2022-10-31T02:47:13;96290.09;;;9.97;100.00
55149;BME280;49539;48.160;11.530;2022-10-31T02:49:45;96294.41;;;9.94;100.00
55149;BME280;49539;48.160;11.530;2022-10-31T02:52:18;96293.72;;;9.87;100.00
55149;BME280;49539;48.160;11.530;2022-10-31T02:54:44;96290.22;;;9.86;100.00
55149;BME280;49539;48.160;11.530;2022-10-31T02:57:10;96296.88;;;9.82;100.00
55149;BME280;49539;48.160;11.530;2022-10-31T02:59:37;96301.56;;;9.81;100.00
55149;BME280;49539;48.160;11.530;2022-10-31T03:02:20;96287.47;;;9.90;100.00
55149;BME280;49539;48.160;11.530;2022-10-31T03:05:10;96287.84;;;9.92;100.00
55149;BME280;49539;48.160;11.530;2022-10-31T03:13:10;96290.25;;;9.83;100.00
55149;BME280;49539;48.160;11.530;2022-10-31T03:15:38;96293.31;;;9.88;100.00
55149;BME280;49539;48.160;11.530;2022-10-31T03:18:20;96289.47;;;9.86;100.00
55149;BME280;49539;48.160;11.530;2022-10-31T03:20:57;96290.75;;;9.74;100.00
55149;BME280;49539;48.160;11.530;2022-10-31T03:23:25;96291.47;;;9.78;100.00
55149;BME280;49539;48.160;11.530;2022-10-31T03:25:52;96295.75;;;9.79;100.00
55149;BME280;49539;48.160;11.530;2022-10-31T03:28:19;96289.59;;;9.75;100.00
55149;BME280;49539;48.160;11.530;2022-10-31T03:30:45;96291.56;;;9.71;100.00
55149;BME280;49539;48.160;11.530;2022-10-31T03:33:13;96292.38;;;9.68;100.00
55149;BME280;49539;48.160;11.530;2022-10-31T03:35:41;96291.22;;;9.65;100.00
55149;BME280;49539;48.160;11.530;2022-10-31T03:38:07;96289.28;;;9.66;100.00
55149;BME280;49539;48.160;11.530;2022-10-31T03:40:34;96292.88;;;9.59;100.00
55149;BME280;49539;48.160;11.530;2022-10-31T03:43:03;96288.53;;;9.62;100.00
55149;BME280;49539;48.160;11.530;2022-10-31T03:45:32;96297.13;;;9.60;100.00
55149;BME280;49539;48.160;11.530;2022-10-31T03:48:00;96282.78;;;9.56;100.00
55149;BME280;49539;48.160;11.530;2022-10-31T03:50:27;96292.91;;;9.56;100.00
55149;BME280;49539;48.160;11.530;2022-10-31T03:52:55;96284.31;;;9.57;100.00
55149;BME280;49539;48.160;11.530;2022-10-31T04:00:15;96299.47;;;9.58;100.00
55149;BME280;49539;48.160;11.530;2022-10-31T04:02:47;96297.84;;;9.64;100.00
55149;BME280;49539;48.160;11.530;2022-10-31T04:05:14;96288.66;;;9.51;100.00
55149;BME280;49539;48.160;11.530;2022-10-31T04:07:41;96291.03;;;9.45;100.00
55149;BME280;49539;48.160;11.530;2022-10-31T04:10:10;96291.13;;;9.38;100.00
55149;BME280;49539;48.160;11.530;2022-10-31T04:12:37;96294.25;;;9.33;100.00
55149;BME280;49539;48.160;11.530;2022-10-31T04:15:04;96293.78;;;9.42;100.00
55149;BME280;49539;48.160;11.530;2022-10-31T04:17:32;96292.59;;;9.47;100.00
55149;BME280;49539;48.160;11.530;2022-10-31T04:19:59;96291.88;;;9.42;100.00
55149;BME280;49539;48.160;11.530;2022-10-31T04:22:28;96289.88;;;9.47;100.00
55149;BME280;49539;48.160;11.530;2022-10-31T04:24:53;96292.16;;;9.52;100.00
55149;BME280;49539;48.160;11.530;2022-10-31T04:27:18;96289.81;;;9.50;100.00
55149;BME280;49539;48.160;11.530;2022-10-31T04:29:44;96284.47;;;9.43;100.00
55149;BME280;49539;48.160;11.530;2022-10-31T04:32:09;96292.28;;;9.37;100.00
55149;BME280;49539;48.160;11.530;2022-10-31T04:34:34;96291.94;;;9.35;100.00
55149;BME280;49539;48.160;11.530;2022-10-31T04:36:59;96294.66;;;9.35;100.00
55149;BME280;49539;48.160;11.530;2022-10-31T04:39:25;96298.53;;;9.34;100.00
55149;BME280;49539;48.160;11.530;2022-10-31T04:41:50;96293.50;;;9.33;100.00
55149;BME280;49539;48.160;11.530;2022-10-31T04:44:15;96296.56;;;9.38;100.00
55149;BME280;49539;48.160;11.530;2022-10-31T04:46:41;96293.91;;;9.31;100.00
55149;BME280;49539;48.160;11.530;2022-10-31T04:49:06;96300.53;;;9.30;100.00
55149;BME280;49539;48.160;11.530;2022-10-31T04:51:31;96294.75;;;9.21;100.00
55149;BME280;49539;48.160;11.530;2022-10-31T04:53:57;96300.94;;;9.25;100.00
55149;BME280;49539;48.160;11.530;2022-10-31T04:56:22;96297.91;;;9.16;100.00
55149;BME280;49539;48.160;11.530;2022-10-31T04:58:47;96299.06;;;9.18;100.00
55149;BME280;49539;48.160;11.530;2022-10-31T05:01:12;96295.59;;;9.14;100.00
55149;BME280;49539;48.160;11.530;2022-10-31T05:03:38;96297.56;;;9.14;100.00
55149;BME280;49539;48.160;11.530;2022-10-31T05:06:05;96297.16;;;9.12;100.00
55149;BME280;49539;48.160;11.530;2022-10-31T05:08:30;96294.09;;;9.10;100.00
55149;BME280;49539;48.160;11.530;2022-10-31T05:10:58;96294.44;;;9.12;100.00
55149;BME280;49539;48.160;11.530;2022-10-31T05:13:24;96287.47;;;9.11;100.00
55149;BME280;49539;48.160;11.530;2022-10-31T05:15:49;96290.97;;;9.11;100.00
55149;BME280;49539;48.160;11.530;2022-10-31T05:18:15;96285.97;;;9.06;100.00
55149;BME280;49539;48.160;11.530;2022-10-31T05:20:40;96284.00;;;9.10;100.00
55149;BME280;49539;48.160;11.530;2022-10-31T05:23:05;96283.25;;;9.06;100.00
55149;BME280;49539;48.160;11.530;2022-10-31T05:25:30;96284.03;;;9.03;100.00
55149;BME280;49539;48.160;11.530;2022-10-31T05:27:56;96281.31;;;9.07;100.00
55149;BME280;49539;48.160;11.530;2022-10-31T05:30:24;96284.06;;;9.00;100.00
55149;BME280;49539;48.160;11.530;2022-10-31T05:32:50;96287.16;;;9.05;100.00
55149;BME280;49539;48.160;11.530;2022-10-31T05:35:18;96278.25;;;9.01;100.00
55149;BME280;49539;48.160;11.530;2022-10-31T05:37:44;96271.63;;;9.06;100.00
55149;BME280;49539;48.160;11.530;2022-10-31T05:40:10;96277.09;;;8.99;100.00
55149;BME280;49539;48.160;11.530;2022-10-31T05:42:37;96271.22;;;9.04;100.00
55149;BME280;49539;48.160;11.530;2022-10-31T05:45:03;96277.06;;;9.02;100.00
55149;BME280;49539;48.160;11.530;2022-10-31T05:47:28;96278.25;;;9.01;100.00
55149;BME280;49539;48.160;11.530;2022-10-31T05:49:53;96268.56;;;8.97;100.00
55149;BME280;49539;48.160;11.530;2022-10-31T05:52:19;96270.53;;;8.92;100.00
55149;BME280;49539;48.160;11.530;2022-10-31T05:54:44;96263.94;;;8.93;100.00
55149;BME280;49539;48.160;11.530;2022-10-31T05:57:09;96270.16;;;8.94;100.00
55149;BME280;49539;48.160;11.530;2022-10-31T05:59:35;96269.00;;;8.91;100.00
55149;BME280;49539;48.160;11.530;2022-10-31T06:02:00;96275.19;;;8.95;100.00
55149;BME280;49539;48.160;11.530;2022-10-31T06:04:25;96272.91;;;8.90;100.00
55149;BME280;49539;48.160;11.530;2022-10-31T06:06:51;96277.13;;;8.95;100.00
55149;BME280;49539;48.160;11.530;2022-10-31T06:09:16;96271.28;;;8.97;100.00
55149;BME280;49539;48.160;11.530;2022-10-31T06:11:41;96277.09;;;8.99;100.00
55149;BME280;49539;48.160;11.530;2022-10-31T06:14:07;96275.59;;;8.94;100.00
55149;BME280;49539;48.160;11.530;2022-10-31T06:16:32;96284.56;;;8.87;100.00
55149;BME280;49539;48.160;11.530;2022-10-31T06:18:57;96281.81;;;8.91;100.00
55149;BME280;49539;48.160;11.530;2022-10-31T06:21:23;96286.41;;;9.01;100.00
55149;BME280;49539;48.160;11.530;2022-10-31T06:23:48;96284.88;;;8.97;100.00
55149;BME280;49539;48.160;11.530;2022-10-31T06:26:13;96288.75;;;8.95;100.00
55149;BME280;49539;48.160;11.530;2022-10-31T06:28:39;96282.47;;;9.09;100.00
55149;BME280;49539;48.160;11.530;2022-10-31T06:31:04;96282.50;;;9.02;100.00
55149;BME280;49539;48.160;11.530;2022-10-31T06:33:29;96282.06;;;9.07;100.00
55149;BME280;49539;48.160;11.530;2022-10-31T06:35:55;96284.00;;;9.10;100.00
55149;BME280;49539;48.160;11.530;2022-10-31T06:38:20;96277.41;;;9.08;100.00
55149;BME280;49539;48.160;11.530;2022-10-31T06:40:45;96289.72;;;9.23;100.00
55149;BME280;49539;48.160;11.530;2022-10-31T06:43:12;96273.78;;;9.22;100.00
55149;BME280;49539;48.160;11.530;2022-10-31T06:45:39;96277.25;;;9.26;100.00
55149;BME280;49539;48.160;11.530;2022-10-31T06:48:04;96283.06;;;9.28;100.00
55149;BME280;49539;48.160;11.530;2022-10-31T06:50:30;96277.63;;;9.28;100.00
55149;BME280;49539;48.160;11.530;2022-10-31T06:52:56;96274.50;;;9.29;100.00
55149;BME280;49539;48.160;11.530;2022-10-31T06:55:21;96282.59;;;9.36;100.00
55149;BME280;49539;48.160;11.530;2022-10-31T06:57:54;96281.41;;;9.37;100.00
55149;BME280;49539;48.160;11.530;2022-10-31T07:00:21;96287.19;;;9.43;100.00
55149;BME280;49539;48.160;11.530;2022-10-31T07:02:59;96294.84;;;9.55;100.00
55149;BME280;49539;48.160;11.530;2022-10-31T07:05:25;96288.19;;;9.60;100.00
55149;BME280;49539;48.160;11.530;2022-10-31T07:07:54;96287.81;;;9.58;100.00
55149;BME280;49539;48.160;11.530;2022-10-31T07:10:20;96289.72;;;9.61;100.00
55149;BME280;49539;48.160;11.530;2022-10-31T07:12:45;96294.75;;;9.62;100.00
55149;BME280;49539;48.160;11.530;2022-10-31T07:15:11;96296.53;;;9.80;100.00
55149;BME280;49539;48.160;11.530;2022-10-31T07:17:36;96296.03;;;9.88;100.00
55149;BME280;49539;48.160;11.530;2022-10-31T07:20:02;96299.91;;;9.87;100.00
55149;BME280;49539;48.160;11.530;2022-10-31T07:22:34;96291.69;;;9.94;100.00
55149;BME280;49539;48.160;11.530;2022-10-31T07:24:59;96298.56;;;10.06;100.00
55149;BME280;49539;48.160;11.530;2022-10-31T07:27:25;96288.31;;;10.17;100.00
55149;BME280;49539;48.160;11.530;2022-10-31T07:29:55;96296.81;;;10.19;100.00
55149;BME280;49539;48.160;11.530;2022-10-31T07:32:24;96292.78;;;10.35;100.00
55149;BME280;49539;48.160;11.530;2022-10-31T07:34:49;96295.28;;;10.49;100.00
55149;BME280;49539;48.160;11.530;2022-10-31T07:37:14;96294.84;;;10.54;100.00
55149;BME280;49539;48.160;11.530;2022-10-31T07:39:40;96297.06;;;10.63;100.00
55149;BME280;49539;48.160;11.530;2022-10-31T07:42:05;96291.44;;;10.74;100.00
55149;BME280;49539;48.160;11.530;2022-10-31T07:44:31;96297.94;;;10.83;100.00
55149;BME280;49539;48.160;11.530;2022-10-31T07:46:56;96289.25;;;10.92;100.00
55149;BME280;49539;48.160;11.530;2022-10-31T07:49:21;96288.44;;;10.95;100.00
55149;BME280;49539;48.160;11.530;2022-10-31T07:51:47;96287.84;;;11.07;100.00
55149;BME280;49539;48.160;11.530;2022-10-31T07:54:13;96275.22;;;11.17;100.00
55149;BME280;49539;48.160;11.530;2022-10-31T07:56:39;96275.50;;;11.23;100.00
55149;BME280;49539;48.160;11.530;2022-10-31T07:59:05;96277.69;;;11.31;100.00
55149;BME280;49539;48.160;11.530;2022-10-31T08:01:31;96272.34;;;11.48;100.00
55149;BME280;49539;48.160;11.530;2022-10-31T08:03:56;96268.66;;;11.58;100.00
55149;BME280;49539;48.160;11.530;2022-10-31T08:06:23;96266.84;;;11.71;100.00
55149;BME280;49539;48.160;11.530;2022-10-31T08:08:53;96262.44;;;11.77;100.00
55149;BME280;49539;48.160;11.530;2022-10-31T08:11:18;96267.66;;;11.91;100.00
55149;BME280;49539;48.160;11.530;2022-10-31T08:13:46;96258.91;;;12.00;100.00
55149;BME280;49539;48.160;11.530;2022-10-31T08:16:11;96257.75;;;12.17;100.00
55149;BME280;49539;48.160;11.530;2022-10-31T08:18:36;96260.41;;;12.21;100.00
55149;BME280;49539;48.160;11.530;2022-10-31T08:21:02;96252.88;;;12.45;100.00
55149;BME280;49539;48.160;11.530;2022-10-31T08:23:28;96246.00;;;12.57;100.00
55149;BME280;49539;48.160;11.530;2022-10-31T08:25:53;96242.59;;;12.69;100.00
55149;BME280;49539;48.160;11.530;2022-10-31T08:28:18;96244.47;;;12.72;100.00
55149;BME280;49539;48.160;11.530;2022-10-31T08:30:44;96239.84;;;12.85;100.00
55149;BME280;49539;48.160;11.530;2022-10-31T08:33:14;96242.59;;;13.02;100.00
55149;BME280;49539;48.160;11.530;2022-10-31T08:35:40;96235.31;;;12.95;100.00
55149;BME280;49539;48.160;11.530;2022-10-31T08:38:05;96236.34;;;13.18;100.00
55149;BME280;49539;48.160;11.530;2022-10-31T08:40:33;96231.66;;;13.34;100.00
55149;BME280;49539;48.160;11.530;2022-10-31T08:43:01;96226.13;;;13.51;100.00
55149;BME280;49539;48.160;11.530;2022-10-31T08:45:26;96227.72;;;13.64;100.00
55149;BME280;49539;48.160;11.530;2022-10-31T08:47:56;96225.47;;;13.76;100.00
55149;BME280;49539;48.160;11.530;2022-10-31T08:50:21;96216.25;;;13.82;100.00
55149;BME280;49539;48.160;11.530;2022-10-31T08:52:48;96210.94;;;13.92;100.00
55149;BME280;49539;48.160;11.530;2022-10-31T08:55:13;96210.72;;;13.99;100.00
55149;BME280;49539;48.160;11.530;2022-10-31T08:57:39;96206.47;;;14.23;100.00
55149;BME280;49539;48.160;11.530;2022-10-31T09:00:04;96207.81;;;14.31;100.00
55149;BME280;49539;48.160;11.530;2022-10-31T09:02:30;96201.34;;;14.38;100.00
55149;BME280;49539;48.160;11.530;2022-10-31T09:04:55;96206.09;;;14.50;100.00
55149;BME280;49539;48.160;11.530;2022-10-31T09:07:21;96189.97;;;14.52;100.00
55149;BME280;49539;48.160;11.530;2022-10-31T09:09:46;96198.53;;;14.67;100.00
55149;BME280;49539;48.160;11.530;2022-10-31T09:12:12;96187.56;;;14.67;100.00
55149;BME280;49539;48.160;11.530;2022-10-31T09:14:37;96188.22;;;14.71;100.00
55149;BME280;49539;48.160;11.530;2022-10-31T09:17:03;96184.00;;;14.92;100.00
55149;BME280;49539;48.160;11.530;2022-10-31T09:19:28;96179.16;;;14.96;100.00
55149;BME280;49539;48.160;11.530;2022-10-31T09:21:54;96173.88;;;15.14;100.00
55149;BME280;49539;48.160;11.530;2022-10-31T09:24:19;96165.19;;;15.38;100.00
55149;BME280;49539;48.160;11.530;2022-10-31T09:26:45;96162.66;;;15.44;100.00
55149;BME280;49539;48.160;11.530;2022-10-31T09:29:10;96157.06;;;15.47;100.00
55149;BME280;49539;48.160;11.530;2022-10-31T09:31:36;96155.91;;;15.79;100.00
55149;BME280;49539;48.160;11.530;2022-10-31T09:34:01;96150.78;;;15.91;100.00
55149;BME280;49539;48.160;11.530;2022-10-31T09:36:27;96144.47;;;16.12;100.00
55149;BME280;49539;48.160;11.530;2022-10-31T09:38:52;96136.44;;;16.18;100.00
55149;BME280;49539;48.160;11.530;2022-10-31T09:44:21;96136.38;;;16.49;100.00
55149;BME280;49539;48.160;11.530;2022-10-31T09:46:58;96137.91;;;16.50;100.00
55149;BME280;49539;48.160;11.530;2022-10-31T09:52:18;96134.84;;;16.48;100.00
55149;BME280;49539;48.160;11.530;2022-10-31T09:57:12;96128.19;;;16.67;100.00
55149;BME280;49539;48.160;11.530;2022-10-31T09:59:39;96117.75;;;16.62;100.00
55149;BME280;49539;48.160;11.530;2022-10-31T10:06:57;96113.41;;;17.20;100.00
55149;BME280;49539;48.160;11.530;2022-10-31T10:09:24;96104.72;;;17.30;100.00
55149;BME280;49539;48.160;11.530;2022-10-31T10:24:35;96107.63;;;18.06;100.00
55149;BME280;49539;48.160;11.530;2022-10-31T10:27:20;96110.50;;;18.21;100.00
55149;BME280;49539;48.160;11.530;2022-10-31T10:29:50;96104.06;;;18.24;100.00
55149;BME280;49539;48.160;11.530;2022-10-31T10:32:20;96109.63;;;18.48;100.00
55149;BME280;49539;48.160;11.530;2022-10-31T10:35:33;96098.41;;;18.84;100.00
55149;BME280;49539;48.160;11.530;2022-10-31T10:37:34;96099.16;;;18.85;100.00
55149;BME280;49539;48.160;11.530;2022-10-31T10:40:13;96090.09;;;18.60;100.00
55149;BME280;49539;48.160;11.530;2022-10-31T10:42:41;96098.31;;;18.70;100.00
55149;BME280;49539;48.160;11.530;2022-10-31T10:45:25;96088.81;;;18.71;100.00
55149;BME280;49539;48.160;11.530;2022-10-31T10:48:23;96088.38;;;19.11;100.00
55149;BME280;49539;48.160;11.530;2022-10-31T10:50:51;96085.28;;;18.94;100.00
55149;BME280;49539;48.160;11.530;2022-10-31T10:58:38;96074.97;;;19.33;100.00
55149;BME280;49539;48.160;11.530;2022-10-31T11:01:11;96070.38;;;19.69;100.00
55149;BME280;49539;48.160;11.530;2022-10-31T11:03:37;96069.66;;;19.30;100.00
55149;BME280;49539;48.160;11.530;2022-10-31T11:06:02;96064.31;;;19.41;100.00
55149;BME280;49539;48.160;11.530;2022-10-31T11:08:29;96057.66;;;19.48;100.00
55149;BME280;49539;48.160;11.530;2022-10-31T11:10:56;96053.88;;;19.75;100.00
55149;BME280;49539;48.160;11.530;2022-10-31T11:13:22;96054.13;;;19.32;100.00
55149;BME280;49539;48.160;11.530;2022-10-31T11:18:34;96052.34;;;19.59;100.00
55149;BME280;49539;48.160;11.530;2022-10-31T11:21:03;96052.44;;;19.65;100.00
55149;BME280;49539;48.160;11.530;2022-10-31T11:23:32;96047.75;;;19.71;100.00
55149;BME280;49539;48.160;11.530;2022-10-31T11:26:02;96041.47;;;19.85;100.00
55149;BME280;49539;48.160;11.530;2022-10-31T11:28:29;96035.25;;;20.05;100.00
55149;BME280;49539;48.160;11.530;2022-10-31T11:30:58;96031.84;;;20.30;100.00
55149;BME280;49539;48.160;11.530;2022-10-31T11:35:50;96027.63;;;20.50;100.00
55149;BME280;49539;48.160;11.530;2022-10-31T11:38:19;96025.81;;;20.67;100.00
55149;BME280;49539;48.160;11.530;2022-10-31T11:41:06;96017.91;;;20.80;100.00
55149;BME280;49539;48.160;11.530;2022-10-31T11:43:33;96018.47;;;20.85;100.00
55149;BME280;49539;48.160;11.530;2022-10-31T11:46:10;96021.72;;;21.03;100.00
55149;BME280;49539;48.160;11.530;2022-10-31T11:48:36;96018.38;;;20.99;100.00
55149;BME280;49539;48.160;11.530;2022-10-31T11:51:01;96014.75;;;21.14;100.00
55149;BME280;49539;48.160;11.530;2022-10-31T11:53:28;96006.22;;;21.17;100.00
55149;BME280;49539;48.160;11.530;2022-10-31T11:56:04;96003.19;;;21.36;100.00
55149;BME280;49539;48.160;11.530;2022-10-31T11:58:30;96008.22;;;21.37;100.00
55149;BME280;49539;48.160;11.530;2022-10-31T12:00:57;96005.69;;;21.39;100.00
55149;BME280;49539;48.160;11.530;2022-10-31T12:08:34;95995.13;;;20.30;100.00
55149;BME280;49539;48.160;11.530;2022-10-31T12:15:54;95996.03;;;20.21;100.00
55149;BME280;49539;48.160;11.530;2022-10-31T12:18:31;95985.91;;;20.18;100.00
55149;BME280;49539;48.160;11.530;2022-10-31T12:33:32;95984.00;;;20.24;100.00
55149;BME280;49539;48.160;11.530;2022-10-31T12:36:07;95979.13;;;20.19;100.00
55149;BME280;49539;48.160;11.530;2022-10-31T12:38:54;95986.28;;;20.26;100.00
55149;BME280;49539;48.160;11.530;2022-10-31T12:41:29;95976.91;;;20.23;100.00
55149;BME280;49539;48.160;11.530;2022-10-31T12:49:09;95969.69;;;20.87;100.00
55149;BME280;49539;48.160;11.530;2022-10-31T12:51:45;95964.63;;;20.65;100.00
55149;BME280;49539;48.160;11.530;2022-10-31T12:54:25;95957.34;;;20.88;100.00
55149;BME280;49539;48.160;11.530;2022-10-31T12:56:56;95951.09;;;20.93;100.00
55149;BME280;49539;48.160;11.530;2022-10-31T12:59:28;95943.50;;;20.88;100.00
55149;BME280;49539;48.160;11.530;2022-10-31T13:06:56;95933.75;;;22.96;100.00
55149;BME280;49539;48.160;11.530;2022-10-31T13:09:30;95931.25;;;23.60;96.70
55149;BME280;49539;48.160;11.530;2022-10-31T13:11:58;95925.97;;;23.34;98.87
55149;BME280;49539;48.160;11.530;2022-10-31T13:14:27;95930.56;;;22.49;100.00
55149;BME280;49539;48.160;11.530;2022-10-31T13:16:58;95925.94;;;21.49;100.00
55149;BME280;49539;48.160;11.530;2022-10-31T13:19:27;95934.88;;;22.07;100.00
55149;BME280;49539;48.160;11.530;2022-10-31T13:22:06;95924.38;;;21.42;100.00
55149;BME280;49539;48.160;11.530;2022-10-31T13:26:59;95919.94;;;21.24;100.00
55149;BME280;49539;48.160;11.530;2022-10-31T13:31:52;95915.09;;;21.45;100.00
55149;BME280;49539;48.160;11.530;2022-10-31T13:34:27;95910.03;;;20.86;100.00
55149;BME280;49539;48.160;11.530;2022-10-31T13:37:01;95913.50;;;20.40;100.00
55149;BME280;49539;48.160;11.530;2022-10-31T13:44:24;95901.84;;;20.51;100.00
55149;BME280;49539;48.160;11.530;2022-10-31T13:46:50;95906.22;;;20.58;100.00
55149;BME280;49539;48.160;11.530;2022-10-31T13:49:35;95906.50;;;20.65;100.00
55149;BME280;49539;48.160;11.530;2022-10-31T13:54:34;95893.88;;;20.38;100.00
55149;BME280;49539;48.160;11.530;2022-10-31T13:57:00;95899.63;;;20.35;100.00
55149;BME280;49539;48.160;11.530;2022-10-31T13:59:26;95896.88;;;20.14;100.00
55149;BME280;49539;48.160;11.530;2022-10-31T14:04:20;95894.94;;;20.20;100.00
55149;BME280;49539;48.160;11.530;2022-10-31T14:09:17;95886.28;;;19.92;100.00
55149;BME280;49539;48.160;11.530;2022-10-31T14:11:45;95884.16;;;20.02;100.00
55149;BME280;49539;48.160;11.530;2022-10-31T14:14:11;95877.16;;;20.06;100.00
55149;BME280;49539;48.160;11.530;2022-10-31T14:16:36;95875.16;;;20.07;100.00
55149;BME280;49539;48.160;11.530;2022-10-31T14:19:05;95873.44;;;20.10;100.00
55149;BME280;49539;48.160;11.530;2022-10-31T14:21:36;95877.69;;;20.31;100.00
55149;BME280;49539;48.160;11.530;2022-10-31T14:24:02;95871.00;;;20.38;100.00
55149;BME280;49539;48.160;11.530;2022-10-31T14:26:37;95873.97;;;19.93;100.00
55149;BME280;49539;48.160;11.530;2022-10-31T14:39:29;95856.34;;;19.91;100.00
55149;BME280;49539;48.160;11.530;2022-10-31T14:50:36;95847.69;;;19.63;100.00
55149;BME280;49539;48.160;11.530;2022-10-31T14:53:03;95858.44;;;19.61;100.00
55149;BME280;49539;48.160;11.530;2022-10-31T14:55:29;95850.34;;;19.57;100.00
55149;BME280;49539;48.160;11.530;2022-10-31T14:57:57;95844.19;;;19.47;100.00
55149;BME280;49539;48.160;11.530;2022-10-31T15:00:24;95847.47;;;19.31;100.00